Time;durP1;ratioP1;P1;durP2;ratioP2;P2;SDS_P1;SDS_P2;PMS_P1;PMS_P2;Temp;Humidity;BMP_temperature;BMP_pressure;BME280_temperature;BME280_humidity;BME280_pressure;Samples;Min_cycle;Max_cycle;Signal;HPM_P1;HPM_P2
2022/11/10 00:04:08;;;;;;;7.73;3.90;;;;;;;16.23;50.47;100156.69;10446640;28;20712;-92
2022/11/10 00:09:11;;;;;;;6.43;3.67;;;;;;;16.40;49.71;100148.97;10438048;28;20767;-92
2022/11/10 00:19:34;;;;;;;5.43;3.77;;;;;;;15.71;50.25;100210.56;10447782;28;20245;-92
2022/11/10 00:24:35;;;;;;;6.23;3.30;;;;;;;16.15;50.23;100211.75;10448741;28;20713;-91
2022/11/10 00:29:37;;;;;;;10.73;3.50;;;;;;;16.12;50.25;100184.34;10437376;28;20236;-91
2022/11/10 00:34:39;;;;;;;6.43;3.60;;;;;;;15.44;51.03;100232.09;10454304;28;20243;-92
2022/11/10 00:39:42;;;;;;;8.90;3.57;;;;;;;15.19;51.40;100233.72;10444252;28;20235;-92
2022/11/10 00:44:43;;;;;;;7.13;3.70;;;;;;;15.30;51.05;100228.56;10443466;28;20296;-90
2022/11/10 00:49:45;;;;;;;5.20;3.23;;;;;;;14.67;52.59;100242.22;10442971;28;20602;-91
2022/11/10 00:54:47;;;;;;;7.57;3.87;;;;;;;14.22;52.55;100241.75;10451327;28;20255;-91
2022/11/10 00:59:49;;;;;;;5.77;3.63;;;;;;;14.82;51.75;100222.44;10448900;28;20649;-91
2022/11/10 01:04:51;;;;;;;7.80;3.70;;;;;;;13.81;53.48;100267.50;10463598;28;20725;-90
2022/11/10 01:09:52;;;;;;;6.53;3.90;;;;;;;14.34;52.12;100269.81;10460631;28;20708;-93
2022/11/10 01:14:55;;;;;;;8.40;4.20;;;;;;;13.66;53.64;100275.66;10449020;28;20277;-91
2022/11/10 01:19:57;;;;;;;11.77;4.23;;;;;;;14.24;52.96;100244.25;10447512;28;20476;-91
2022/11/10 01:24:58;;;;;;;9.47;4.00;;;;;;;15.13;50.60;100205.69;10451015;28;20259;-92
2022/11/10 01:30:01;;;;;;;8.00;4.27;;;;;;;14.86;50.64;100275.69;10445793;28;20293;-92
2022/11/10 01:35:03;;;;;;;4.63;3.57;;;;;;;14.46;51.63;100309.63;10465015;28;20639;-91
2022/11/10 01:40:05;;;;;;;10.93;4.17;;;;;;;14.14;51.57;100304.66;10439969;28;20808;-92
2022/11/10 01:45:23;;;;;;;6.30;3.53;;;;;;;14.76;50.54;100311.06;10454359;28;20235;-92
2022/11/10 01:50:30;;;;;;;9.97;3.90;;;;;;;14.94;50.63;100313.22;10484664;28;20223;-91
2022/11/10 01:55:34;;;;;;;10.00;3.73;;;;;;;15.65;48.80;100262.63;10455414;28;20236;-91
2022/11/10 02:00:36;;;;;;;7.83;3.80;;;;;;;14.12;51.46;100344.41;10453554;28;20882;-92
2022/11/10 02:05:38;;;;;;;6.87;3.80;;;;;;;14.89;50.28;100317.56;10456809;28;20236;-92
2022/11/10 02:10:40;;;;;;;7.13;4.10;;;;;;;13.75;52.02;100343.63;10448045;28;20386;-92
2022/11/10 02:15:42;;;;;;;8.53;4.10;;;;;;;14.05;51.79;100321.94;10451021;28;20323;-92
2022/11/10 02:20:45;;;;;;;11.73;4.00;;;;;;;13.46;52.35;100355.28;10449691;28;20307;-91
2022/11/10 02:25:47;;;;;;;7.87;4.03;;;;;;;13.96;51.79;100323.94;10452624;28;20235;-92
2022/11/10 02:30:49;;;;;;;8.00;3.67;;;;;;;15.46;49.24;100269.66;10446334;28;20220;-92
2022/11/10 02:35:51;;;;;;;5.53;3.70;;;;;;;15.00;48.85;100308.94;10454461;28;20256;-91
2022/11/10 02:40:59;;;;;;;9.83;3.80;;;;;;;15.10;48.76;100319.31;10450761;28;20243;-92
2022/11/10 02:46:01;;;;;;;7.83;3.83;;;;;;;15.46;48.23;100310.91;10471894;28;20291;-92
2022/11/10 02:51:02;;;;;;;5.70;3.93;;;;;;;15.48;47.85;100298.06;10475204;28;20276;-92
2022/11/10 02:56:05;;;;;;;8.63;3.83;;;;;;;14.51;49.65;100374.50;10478714;28;20932;-92
2022/11/10 03:01:07;;;;;;;6.63;3.90;;;;;;;15.13;49.46;100327.00;10465376;28;20235;-93
2022/11/10 03:06:08;;;;;;;8.03;4.23;;;;;;;14.59;49.63;100380.59;10462067;28;20240;-92
2022/11/10 03:11:10;;;;;;;6.77;3.80;;;;;;;15.08;48.44;100364.50;10457035;28;20243;-92
2022/11/10 03:16:12;;;;;;;7.37;3.97;;;;;;;14.37;50.33;100414.81;10469508;28;20235;-92
2022/11/10 03:21:14;;;;;;;12.57;4.43;;;;;;;15.17;48.66;100357.91;10445101;28;20222;-92
2022/11/10 03:26:16;;;;;;;12.40;4.53;;;;;;;13.95;49.89;100427.22;10454303;28;20780;-92
2022/11/10 03:31:25;;;;;;;6.80;3.67;;;;;;;14.90;49.24;100389.31;10448720;28;20955;-92
2022/11/10 03:36:26;;;;;;;8.57;4.50;;;;;;;15.02;47.99;100378.78;10450911;28;20246;-93
2022/11/10 03:41:28;;;;;;;5.60;3.67;;;;;;;15.12;48.38;100396.25;10461811;28;20237;-92
2022/11/10 03:46:30;;;;;;;5.93;3.63;;;;;;;14.02;49.68;100424.59;10465869;28;20267;-92
2022/11/10 03:51:32;;;;;;;10.13;4.63;;;;;;;15.05;48.70;100390.00;10467658;28;20315;-92
2022/11/10 03:56:34;;;;;;;5.87;3.70;;;;;;;15.64;47.22;100360.78;10467525;28;20240;-92
2022/11/10 04:01:35;;;;;;;7.80;3.70;;;;;;;15.27;47.99;100408.78;10457969;28;20212;-92
2022/11/10 04:17:26;;;;;;;8.13;4.00;;;;;;;14.70;49.22;100451.91;10442411;28;20231;-93
2022/11/10 04:27:48;;;;;;;6.27;4.00;;;;;;;14.25;49.59;100448.63;10459482;28;20240;-93
2022/11/10 04:32:52;;;;;;;7.97;4.00;;;;;;;12.95;51.46;100468.09;10451096;28;20231;-93
2022/11/10 04:37:56;;;;;;;8.03;3.80;;;;;;;13.82;49.70;100472.81;10445221;28;20231;-92
2022/11/10 04:42:57;;;;;;;9.57;4.33;;;;;;;13.41;50.45;100490.28;10454307;28;20243;-92
2022/11/10 04:47:59;;;;;;;8.20;4.33;;;;;;;14.31;48.55;100455.13;10447462;28;20373;-93
2022/11/10 04:53:01;;;;;;;6.70;4.17;;;;;;;13.69;49.59;100503.06;10437718;28;20227;-92
2022/11/10 04:58:03;;;;;;;9.57;4.20;;;;;;;13.76;49.00;100520.09;10458979;28;20247;-93
2022/11/10 05:05:11;;;;;;;10.10;4.87;;;;;;;9.88;57.89;100424.84;10514891;27;20370;-67
2022/11/10 05:10:14;;;;;;;9.90;5.10;;;;;;;11.34;55.64;100454.38;10478787;27;20224;-69
2022/11/10 05:15:16;;;;;;;10.27;4.90;;;;;;;10.64;56.56;100460.34;10482458;27;20211;-67
2022/11/10 05:20:19;;;;;;;10.73;6.03;;;;;;;11.09;55.80;100458.97;10489290;27;20883;-68
2022/11/10 05:25:20;;;;;;;12.77;7.53;;;;;;;9.20;59.78;100426.59;10490721;27;20203;-67
2022/11/10 05:30:22;;;;;;;14.97;8.83;;;;;;;9.94;58.64;100437.56;10525652;28;20203;-67
2022/11/10 05:35:24;;;;;;;11.50;5.97;;;;;;;10.56;57.47;100428.22;10521857;28;20215;-67
2022/11/10 05:40:26;;;;;;;11.17;5.03;;;;;;;10.37;57.24;100450.81;10535090;28;20580;-69
2022/11/10 05:45:28;;;;;;;9.97;4.30;;;;;;;9.74;58.60;100461.03;10522316;28;20331;-67
2022/11/10 05:50:30;;;;;;;7.73;5.07;;;;;;;11.03;56.58;100463.16;10522589;28;20586;-67
2022/11/10 05:55:32;;;;;;;7.87;5.63;;;;;;;11.90;54.47;100453.47;10518804;28;20386;-70
2022/11/10 06:00:34;;;;;;;11.57;4.97;;;;;;;10.99;56.03;100496.63;10512583;28;20235;-68
2022/11/10 06:05:36;;;;;;;6.77;4.73;;;;;;;10.54;56.71;100524.72;10514619;28;20329;-71
2022/11/10 06:10:38;;;;;;;11.17;5.67;;;;;;;10.76;56.59;100533.16;10515532;28;20239;-70
2022/11/10 06:15:40;;;;;;;8.03;5.20;;;;;;;10.99;55.80;100528.78;10503462;28;20234;-67
2022/11/10 06:20:49;;;;;;;8.07;4.90;;;;;;;11.06;55.17;100561.06;10492815;28;20599;-68
2022/11/10 06:25:51;;;;;;;8.23;5.47;;;;;;;9.48;58.95;100565.28;10506421;28;20719;-68
2022/11/10 06:30:57;;;;;;;12.27;6.90;;;;;;;11.19;55.75;100536.47;10486949;28;20275;-71
2022/11/10 06:35:59;;;;;;;17.73;10.83;;;;;;;10.77;55.37;100599.91;10488197;28;20248;-68
2022/11/10 06:41:01;;;;;;;13.70;6.83;;;;;;;11.11;54.74;100585.50;10505866;28;20248;-68
2022/11/10 06:46:02;;;;;;;15.97;5.70;;;;;;;11.84;53.43;100578.34;10491307;28;20742;-71
2022/11/10 06:51:04;;;;;;;20.33;14.43;;;;;;;12.28;52.29;100596.63;10493650;28;20233;-71
2022/11/10 06:56:06;;;;;;;20.57;15.27;;;;;;;11.84;53.51;100642.69;10492257;28;20230;-69
2022/11/10 07:01:08;;;;;;;15.03;11.40;;;;;;;11.80;53.24;100646.75;10493336;28;20243;-69
2022/11/10 07:06:09;;;;;;;14.50;10.90;;;;;;;11.67;53.19;100673.25;10485057;28;20246;-68
2022/11/10 07:11:11;;;;;;;15.90;11.50;;;;;;;11.05;54.80;100704.88;10502092;28;20265;-69
2022/11/10 07:16:13;;;;;;;11.40;7.90;;;;;;;11.78;52.94;100691.69;10479552;28;20839;-68
2022/11/10 07:21:14;;;;;;;12.53;6.40;;;;;;;11.92;53.05;100692.81;10493421;28;20229;-69
2022/11/10 07:26:16;;;;;;;13.27;6.83;;;;;;;12.20;53.07;100703.97;10487489;28;20647;-68
2022/11/10 07:31:19;;;;;;;11.13;7.67;;;;;;;12.13;53.14;100725.28;10493485;28;20234;-69
2022/11/10 07:36:20;;;;;;;11.53;8.23;;;;;;;12.03;53.39;100732.69;10495562;28;20242;-69
2022/11/10 07:41:22;;;;;;;11.23;7.80;;;;;;;10.61;56.21;100763.94;10495668;28;20223;-69
2022/11/10 07:46:24;;;;;;;12.60;7.20;;;;;;;11.35;55.30;100750.78;10491402;28;20304;-68
2022/11/10 07:51:26;;;;;;;11.90;6.37;;;;;;;11.26;56.16;100757.97;10502032;28;20230;-68
2022/11/10 07:56:27;;;;;;;10.17;6.63;;;;;;;12.11;54.05;100723.78;10483704;28;20227;-68
2022/11/10 08:01:29;;;;;;;11.53;7.00;;;;;;;12.37;53.49;100727.06;10492973;28;20236;-69
2022/11/10 08:06:31;;;;;;;12.73;7.63;;;;;;;12.64;52.38;100746.44;10492529;28;20329;-68
2022/11/10 08:11:37;;;;;;;16.07;11.07;;;;;;;11.45;54.74;100806.91;10479485;28;20310;-69
2022/11/10 08:16:38;;;;;;;12.50;8.00;;;;;;;11.00;57.24;100809.00;10478072;28;20234;-68
2022/11/10 08:21:40;;;;;;;12.33;6.10;;;;;;;11.57;56.74;100788.66;10481897;28;20231;-68
2022/11/10 08:26:42;;;;;;;13.97;7.10;;;;;;;12.85;53.70;100763.81;10468028;28;20246;-68
2022/11/10 08:31:43;;;;;;;13.23;7.60;;;;;;;13.87;51.43;100768.13;10492144;28;20218;-68
2022/11/10 08:36:45;;;;;;;13.70;7.57;;;;;;;11.92;56.59;100862.63;10492868;28;20234;-69
2022/11/10 08:41:47;;;;;;;11.23;6.00;;;;;;;12.33;55.60;100808.09;10507075;28;20233;-68
2022/11/10 08:46:49;;;;;;;13.53;6.63;;;;;;;13.23;54.86;100793.50;10499801;28;20845;-69
2022/11/10 08:51:51;;;;;;;10.07;6.47;;;;;;;13.15;54.28;100802.44;10504540;28;20227;-68
2022/11/10 08:56:52;;;;;;;10.57;6.87;;;;;;;12.24;56.56;100868.16;10472442;28;20239;-69
2022/11/10 09:02:18;;;;;;;13.33;6.63;;;;;;;13.19;53.87;100825.22;10491405;28;20238;-69
2022/11/10 09:07:45;;;;;;;12.63;7.00;;;;;;;12.88;55.12;100860.97;10495211;28;20244;-68
2022/11/10 09:13:14;;;;;;;12.57;7.27;;;;;;;13.09;56.69;100848.81;10484390;28;20227;-69
2022/11/10 09:18:39;;;;;;;9.10;6.50;;;;;;;12.28;58.87;100886.44;10486820;28;20219;-68
2022/11/10 09:24:05;;;;;;;9.17;7.50;;;;;;;12.34;58.25;100858.06;10485053;28;20250;-69
2022/11/10 09:29:31;;;;;;;13.00;8.27;;;;;;;14.04;54.67;100794.72;10484232;28;20230;-69
2022/11/10 09:34:58;;;;;;;14.03;9.47;;;;;;;13.42;55.71;100835.22;10481851;28;20227;-69
2022/11/10 09:40:50;;;;;;;9.13;6.73;;;;;;;13.90;55.81;100826.97;10483033;28;20220;-69
2022/11/10 09:46:37;;;;;;;10.23;5.40;;;;;;;13.23;55.98;100874.13;10487837;28;20318;-69
2022/11/10 09:52:04;;;;;;;6.47;5.17;;;;;;;13.99;54.04;100842.88;10492266;28;20255;-69
2022/11/10 09:57:29;;;;;;;8.37;6.60;;;;;;;14.17;53.86;100856.03;10493922;28;20231;-70
2022/11/10 10:03:00;;;;;;;9.53;5.60;;;;;;;13.39;55.46;100911.69;10493448;28;20280;-71
2022/11/10 10:08:32;;;;;;;8.07;5.50;;;;;;;12.92;55.42;100939.38;10495857;28;20245;-68
2022/11/10 10:14:16;;;;;;;13.00;7.20;;;;;;;14.20;54.51;100855.66;10451672;28;20805;-70
2022/11/10 10:19:51;;;;;;;9.13;6.50;;;;;;;13.62;55.24;100873.25;10474479;28;20219;-69
2022/11/10 10:25:22;;;;;;;10.13;6.70;;;;;;;13.85;54.54;100863.34;10501992;28;20227;-70
2022/11/10 10:30:47;;;;;;;8.43;6.03;;;;;;;14.68;53.55;100858.03;10484726;28;20223;-68
2022/11/10 10:36:21;;;;;;;10.33;6.30;;;;;;;13.89;55.22;100873.75;10484301;28;20306;-70
2022/11/10 10:41:47;;;;;;;11.20;6.37;;;;;;;13.92;55.13;100884.13;10423401;28;20262;-71
2022/11/10 10:47:13;;;;;;;9.27;6.17;;;;;;;13.56;55.99;100880.16;10462752;28;20223;-68
2022/11/10 10:52:39;;;;;;;10.97;5.90;;;;;;;12.27;57.79;100929.53;10482967;28;20218;-69
2022/11/10 10:58:55;;;;;;;10.67;5.60;;;;;;;13.36;56.50;100881.63;10488888;28;20722;-69
2022/11/10 19:07:39;;;;;;;16.33;9.50;;;;;;;13.60;50.56;101018.66;10470930;28;20235;-72
2022/11/10 19:12:41;;;;;;;26.53;17.80;;;;;;;12.37;51.88;101118.09;10473930;28;20234;-71
2022/11/10 19:17:43;;;;;;;14.10;9.40;;;;;;;12.12;52.77;101127.91;10473092;28;20272;-69
2022/11/10 19:22:44;;;;;;;19.47;9.50;;;;;;;;;;10457759;28;20259;-70
2022/11/10 19:27:46;;;;;;;12.67;7.40;;;;;;;11.85;53.41;101128.97;10481260;28;20239;-70
2022/11/10 19:32:47;;;;;;;19.50;13.60;;;;;;;11.93;53.30;101118.25;10482952;28;20280;-68
2022/11/10 19:37:52;;;;;;;14.13;8.40;;;;;;;11.78;55.00;101118.06;10484467;28;20266;-67
2022/11/10 19:42:54;;;;;;;11.60;7.97;;;;;;;13.23;51.36;101055.03;10451513;28;20553;-70
2022/11/10 19:47:56;;;;;;;11.83;7.20;;;;;;;12.42;51.80;101113.09;10472153;28;20235;-69
2022/11/10 19:52:57;;;;;;;10.00;6.97;;;;;;;13.02;50.85;101090.47;10485952;28;20285;-68
2022/11/10 19:57:59;;;;;;;14.30;9.23;;;;;;;12.18;51.76;101140.66;10486793;28;20235;-70
2022/11/10 20:03:00;;;;;;;14.90;10.33;;;;;;;12.05;51.04;101129.56;10485082;28;20235;-67
2022/11/10 20:08:09;;;;;;;14.77;9.57;;;;;;;10.84;55.22;101120.38;10480669;28;20715;-69
2022/11/10 20:13:12;;;;;;;14.67;9.47;;;;;;;11.12;54.68;101141.72;10474073;28;20231;-70
2022/11/10 20:18:13;;;;;;;10.70;7.17;;;;;;;11.74;54.32;101130.94;10463844;28;20694;-70
2022/11/10 20:23:15;;;;;;;9.13;6.73;;;;;;;10.99;54.94;101149.28;10485794;28;20253;-70
2022/11/10 20:28:17;;;;;;;12.93;7.50;;;;;;;12.06;52.52;101110.59;10485715;28;20258;-70
2022/11/10 20:33:19;;;;;;;10.17;6.53;;;;;;;10.71;55.19;101141.28;10481781;28;20437;-69
2022/11/10 20:38:21;;;;;;;17.20;8.27;;;;;;;11.33;54.46;101149.41;10485978;28;20285;-70
2022/11/10 20:43:22;;;;;;;12.10;7.93;;;;;;;10.19;55.96;101141.06;10485350;28;20363;-69
2022/11/10 20:48:24;;;;;;;14.83;7.37;;;;;;;11.60;53.60;101137.69;10485132;28;20318;-68
2022/11/10 20:53:29;;;;;;;10.63;7.00;;;;;;;10.13;56.17;101151.34;10485040;28;20257;-67
2022/11/10 20:58:31;;;;;;;9.10;7.60;;;;;;;11.12;54.78;101146.22;10478673;28;20235;-69
2022/11/10 21:03:33;;;;;;;10.40;8.30;;;;;;;10.56;54.38;101167.72;10479637;28;20242;-69
2022/11/10 21:08:34;;;;;;;12.47;8.60;;;;;;;12.06;51.54;101153.53;10475274;28;20330;-67
2022/11/10 21:13:36;;;;;;;12.17;8.00;;;;;;;12.28;50.47;101143.22;10481155;28;20223;-70
2022/11/10 21:18:38;;;;;;;9.70;6.73;;;;;;;11.35;51.27;101189.44;10483836;28;20266;-71
2022/11/10 21:23:39;;;;;;;7.83;6.17;;;;;;;12.57;49.75;101136.63;10479750;28;20246;-71
2022/11/10 21:28:41;;;;;;;10.27;7.90;;;;;;;10.88;52.33;101177.13;10482199;28;20652;-70
2022/11/10 21:33:43;;;;;;;8.97;6.87;;;;;;;9.85;54.08;101145.13;10481534;28;20246;-69
2022/11/10 21:38:45;;;;;;;12.03;9.63;;;;;;;10.66;52.82;101173.91;10480715;28;20353;-67
2022/11/10 21:43:47;;;;;;;11.23;8.80;;;;;;;10.62;53.12;101180.53;10481095;28;20843;-67
2022/11/10 21:48:49;;;;;;;11.83;7.50;;;;;;;10.44;53.33;101183.16;10482294;28;20234;-67
2022/11/10 21:53:51;;;;;;;11.33;6.80;;;;;;;12.06;51.44;101121.34;10460802;28;20269;-68
2022/11/10 21:58:52;;;;;;;11.17;6.77;;;;;;;11.78;50.28;101191.28;10479752;28;20231;-68
2022/11/10 22:03:54;;;;;;;10.43;6.87;;;;;;;12.30;49.22;101143.91;10476059;28;20236;-68
2022/11/10 22:08:55;;;;;;;8.93;7.57;;;;;;;11.59;50.60;101194.13;10481930;28;20261;-69
2022/11/10 22:19:19;;;;;;;8.53;6.80;;;;;;;11.95;49.64;101202.13;10446355;28;20660;-68
2022/11/10 22:24:26;;;;;;;10.43;6.60;;;;;;;11.38;50.46;101215.94;10479258;28;20285;-66
2022/11/10 22:29:31;;;;;;;11.97;6.07;;;;;;;12.34;49.77;101180.16;10478906;28;20230;-67
2022/11/10 22:34:33;;;;;;;9.17;6.10;;;;;;;10.29;53.73;101193.53;10479462;28;20292;-70
2022/11/10 22:44:54;;;;;;;11.13;7.23;;;;;;;11.19;52.11;101174.09;10473863;28;20234;-67
2022/11/10 22:49:56;;;;;;;9.43;7.17;;;;;;;11.02;51.59;101194.53;10476596;28;20727;-69
2022/11/10 22:54:57;;;;;;;9.60;7.03;;;;;;;12.43;49.38;101140.75;10479808;28;20227;-69
2022/11/10 22:59:59;;;;;;;16.13;10.23;;;;;;;11.42;50.04;101211.94;10477000;28;20235;-66
2022/11/10 23:05:00;;;;;;;9.07;7.43;;;;;;;10.99;52.11;101201.03;10477092;28;20254;-69
2022/11/10 23:10:03;;;;;;;8.97;7.10;;;;;;;10.06;52.17;101173.50;10478065;28;20227;-69
2022/11/10 23:15:05;;;;;;;9.07;6.90;;;;;;;9.10;55.20;101171.69;10476810;28;20227;-69
2022/11/10 23:20:07;;;;;;;10.47;8.83;;;;;;;10.23;52.22;101218.19;10473939;28;20239;-67
2022/11/10 23:25:08;;;;;;;8.97;6.93;;;;;;;9.20;56.38;101182.38;10476150;28;20227;-68
2022/11/10 23:30:10;;;;;;;7.53;5.97;;;;;;;10.30;53.42;101200.56;10478140;28;20593;-69
2022/11/10 23:35:12;;;;;;;8.97;5.70;;;;;;;9.29;54.74;101184.19;10479470;28;20215;-69
2022/11/10 23:40:14;;;;;;;16.97;5.23;;;;;;;9.03;55.83;101167.91;10476282;28;20707;-66
2022/11/10 23:45:15;;;;;;;6.47;5.03;;;;;;;9.02;54.69;101174.22;10476745;28;20278;-65
2022/11/10 23:50:17;;;;;;;5.30;4.70;;;;;;;11.08;51.07;101143.00;10479343;28;20858;-67
2022/11/10 23:55:19;;;;;;;6.87;4.87;;;;;;;10.52;51.67;101193.97;10471814;28;20220;-69
